X

Important NEWS



New Hub Active

Miami is our new hub! Old members can request transfer via hr@dlxairways.net

Thank you very much and have nice flight.


Deluxe Airways.

X

Tours



Hello again, we created one nice test tour for all pilots to attend. also this is ment to be testing of our tour system

Available Tours

If you find some issues please inform us.

Thank you very much and have nice flight.


Deluxe Airways.

 METAR AND TAF INFORMATION
ArrayMETAR FOR LSZH
15084670 9 LSZH 191920Z VRB01KT CAVOK 13/11 Q1009 NOSIG LSZH 2019-10-19T19:20:00Z 47.48 8.53 13.0 11.0 0 1 6.21 29.793306 TRUE VFR METAR 432.0 LSZH 191850Z 34005KT CAVOK 12/11 Q1010 NOSIG LSZH 2019-10-19T18:50:00Z 47.48 8.53 12.0 11.0 340 5 6.21 29.822834 TRUE VFR METAR 432.0 LSZH 191820Z 31005KT CAVOK 12/11 Q1009 NOSIG LSZH 2019-10-19T18:20:00Z 47.48 8.53 12.0 11.0 310 5 6.21 29.793306 TRUE VFR METAR 432.0 LSZH 191750Z 32004KT CAVOK 12/10 Q1009 NOSIG LSZH 2019-10-19T17:50:00Z 47.48 8.53 12.0 10.0 320 4 6.21 29.793306 TRUE VFR METAR 432.0

 AIRPORT MAP

 RUNWAY INFORMATION
Runway 10 Runway length 8202 ft Runway width 197 ft
Runway elevation 1391 ft Runway displaced threshold 0 ft Runway heading 96
Runway 28 Runway length 8202 ft Runway width 197 ft
Runway elevation 1416 ft Runway displaced threshold 0 ft Runway heading 276
Runway 14 Runway length 10827 ft Runway width 197 ft
Runway elevation 1402 ft Runway displaced threshold 490 ft Runway heading 137
Runway 32 Runway length 10827 ft Runway width 197 ft
Runway elevation 1402 ft Runway displaced threshold 0 ft Runway heading 317
Runway 16 Runway length 12139 ft Runway width 197 ft
Runway elevation 1390 ft Runway displaced threshold 0 ft Runway heading 155
Runway 34 Runway length 12139 ft Runway width 197 ft
Runway elevation 1388 ft Runway displaced threshold 1541 ft Runway heading 335

 AIRPORT FREQUENCIES
Type APP Name APP Frequency 118 MHZ
Type ATIS Name ATIS Frequency 125.725 MHZ
Type CLD Name CLNC DEL Frequency 121.8 MHZ
Type DEP Name DEP Frequency 125.95 MHZ
Type GND Name GND Frequency 121.9 MHZ
Type RMP Name APRON Frequency 121.75 MHZ
Type TCA Name TERMINAL Frequency 127.75 MHZ
Type TWR Name TWR Frequency 118.1 MHZ

 AIRPORT NEAR NAVIGATION AIDS
Type VOR-DME Name Kloten Frequency 114850 KHZ
Type VOR-DME Name Zurich East Frequency 110050 KHZ



Powered by Virtual Airlines Manager [v2.6.2]

Template code change by DeluxeAir